sensor_id;sensor_type;location;lat;lon;timestamp;pressure;altitude;pressure_sealevel;temperature;humidity
79577;BME280;69045;48.136;11.386;2023-12-22T00:00:16;93763.50;;;12.69;55.51
79577;BME280;69045;48.136;11.386;2023-12-22T00:02:44;93755.34;;;12.71;56.40
79577;BME280;69045;48.136;11.386;2023-12-22T00:05:12;93782.66;;;12.65;56.59
79577;BME280;69045;48.136;11.386;2023-12-22T00:07:40;93772.72;;;12.51;56.92
79577;BME280;69045;48.136;11.386;2023-12-22T00:10:09;93772.22;;;12.39;57.90
79577;BME280;69045;48.136;11.386;2023-12-22T00:12:37;93792.72;;;12.37;58.62
79577;BME280;69045;48.136;11.386;2023-12-22T00:15:07;93851.53;;;12.36;58.88
79577;BME280;69045;48.136;11.386;2023-12-22T00:17:35;93856.00;;;12.15;56.43
79577;BME280;69045;48.136;11.386;2023-12-22T00:20:04;93859.06;;;11.76;54.83
79577;BME280;69045;48.136;11.386;2023-12-22T00:22:33;93875.16;;;11.23;54.13
79577;BME280;69045;48.136;11.386;2023-12-22T00:25:01;93881.78;;;10.83;56.19
79577;BME280;69045;48.136;11.386;2023-12-22T00:27:29;93900.00;;;10.30;56.53
79577;BME280;69045;48.136;11.386;2023-12-22T00:29:56;93913.31;;;10.02;58.83
79577;BME280;69045;48.136;11.386;2023-12-22T00:32:26;93891.66;;;9.79;58.19
79577;BME280;69045;48.136;11.386;2023-12-22T00:34:54;93887.28;;;9.58;58.63
79577;BME280;69045;48.136;11.386;2023-12-22T00:37:23;93884.69;;;9.36;58.98
79577;BME280;69045;48.136;11.386;2023-12-22T00:39:51;93880.63;;;9.23;59.32
79577;BME280;69045;48.136;11.386;2023-12-22T00:42:23;93874.97;;;9.10;60.24
79577;BME280;69045;48.136;11.386;2023-12-22T00:44:52;93911.94;;;9.01;60.54
79577;BME280;69045;48.136;11.386;2023-12-22T00:47:20;93913.63;;;8.91;61.41
79577;BME280;69045;48.136;11.386;2023-12-22T00:49:49;93917.75;;;8.87;61.21
79577;BME280;69045;48.136;11.386;2023-12-22T00:52:17;93917.69;;;8.82;61.76
79577;BME280;69045;48.136;11.386;2023-12-22T00:54:45;93889.69;;;8.77;61.85
79577;BME280;69045;48.136;11.386;2023-12-22T00:57:14;93899.97;;;8.67;61.76
79577;BME280;69045;48.136;11.386;2023-12-22T00:59:41;93908.16;;;8.54;61.95
79577;BME280;69045;48.136;11.386;2023-12-22T01:02:14;93898.09;;;8.45;62.40
79577;BME280;69045;48.136;11.386;2023-12-22T01:04:42;93905.03;;;8.40;62.48
79577;BME280;69045;48.136;11.386;2023-12-22T01:07:13;93925.63;;;8.36;62.50
79577;BME280;69045;48.136;11.386;2023-12-22T01:09:42;93915.56;;;8.28;62.98
79577;BME280;69045;48.136;11.386;2023-12-22T01:12:10;93917.91;;;8.30;63.55
79577;BME280;69045;48.136;11.386;2023-12-22T01:14:38;93923.13;;;8.30;62.96
79577;BME280;69045;48.136;11.386;2023-12-22T01:17:06;93937.50;;;8.32;63.18
79577;BME280;69045;48.136;11.386;2023-12-22T01:19:34;93947.56;;;8.24;63.55
79577;BME280;69045;48.136;11.386;2023-12-22T01:22:02;93946.28;;;8.26;63.53
79577;BME280;69045;48.136;11.386;2023-12-22T01:24:32;93945.50;;;8.26;63.14
79577;BME280;69045;48.136;11.386;2023-12-22T01:27:00;93947.56;;;8.24;62.75
79577;BME280;69045;48.136;11.386;2023-12-22T01:29:28;93948.72;;;8.16;63.01
79577;BME280;69045;48.136;11.386;2023-12-22T01:31:56;93953.06;;;8.10;62.39
79577;BME280;69045;48.136;11.386;2023-12-22T01:34:24;93955.16;;;7.97;62.56
79577;BME280;69045;48.136;11.386;2023-12-22T01:36:52;93969.84;;;7.86;62.83
79577;BME280;69045;48.136;11.386;2023-12-22T01:39:20;93953.78;;;7.77;63.03
79577;BME280;69045;48.136;11.386;2023-12-22T01:41:49;93962.38;;;7.78;63.61
79577;BME280;69045;48.136;11.386;2023-12-22T01:44:17;93947.34;;;7.68;63.40
79577;BME280;69045;48.136;11.386;2023-12-22T01:46:45;93946.38;;;7.57;63.96
79577;BME280;69045;48.136;11.386;2023-12-22T01:49:14;93942.88;;;7.52;63.72
79577;BME280;69045;48.136;11.386;2023-12-22T01:51:43;93952.63;;;7.45;63.33
79577;BME280;69045;48.136;11.386;2023-12-22T01:54:14;93960.69;;;7.31;64.17
79577;BME280;69045;48.136;11.386;2023-12-22T01:56:42;93948.16;;;7.28;63.91
79577;BME280;69045;48.136;11.386;2023-12-22T01:59:12;93949.72;;;7.29;63.83
79577;BME280;69045;48.136;11.386;2023-12-22T02:01:41;93942.63;;;7.25;63.59
79577;BME280;69045;48.136;11.386;2023-12-22T02:04:11;93937.50;;;7.30;64.05
79577;BME280;69045;48.136;11.386;2023-12-22T02:06:40;93913.50;;;7.28;64.42
79577;BME280;69045;48.136;11.386;2023-12-22T02:09:09;93920.19;;;7.24;64.32
79577;BME280;69045;48.136;11.386;2023-12-22T02:11:37;93957.91;;;7.21;64.30
79577;BME280;69045;48.136;11.386;2023-12-22T02:14:06;93970.69;;;7.23;65.27
79577;BME280;69045;48.136;11.386;2023-12-22T02:16:44;93973.88;;;7.25;65.17
79577;BME280;69045;48.136;11.386;2023-12-22T02:22:06;93976.31;;;7.31;64.51
79577;BME280;69045;48.136;11.386;2023-12-22T02:24:37;93947.59;;;7.26;63.34
79577;BME280;69045;48.136;11.386;2023-12-22T02:27:12;93937.06;;;7.21;64.04
79577;BME280;69045;48.136;11.386;2023-12-22T02:29:48;93929.84;;;7.11;63.84
79577;BME280;69045;48.136;11.386;2023-12-22T02:32:23;93922.16;;;7.05;64.32
79577;BME280;69045;48.136;11.386;2023-12-22T02:34:55;93918.75;;;7.04;64.20
79577;BME280;69045;48.136;11.386;2023-12-22T02:37:24;93909.34;;;7.03;63.82
79577;BME280;69045;48.136;11.386;2023-12-22T02:39:56;93898.50;;;7.06;64.36
79577;BME280;69045;48.136;11.386;2023-12-22T02:42:27;93906.44;;;7.00;65.56
79577;BME280;69045;48.136;11.386;2023-12-22T02:44:57;93924.78;;;7.05;65.33
79577;BME280;69045;48.136;11.386;2023-12-22T02:47:25;93905.72;;;7.04;64.51
79577;BME280;69045;48.136;11.386;2023-12-22T02:49:55;93894.88;;;7.07;64.87
79577;BME280;69045;48.136;11.386;2023-12-22T02:52:23;93891.78;;;7.10;64.58
79577;BME280;69045;48.136;11.386;2023-12-22T02:54:51;93874.94;;;7.13;65.42
79577;BME280;69045;48.136;11.386;2023-12-22T02:57:21;93879.13;;;7.14;64.97
79577;BME280;69045;48.136;11.386;2023-12-22T02:59:49;93882.50;;;7.15;64.94
79577;BME280;69045;48.136;11.386;2023-12-22T03:02:17;93871.88;;;7.16;64.54
79577;BME280;69045;48.136;11.386;2023-12-22T03:04:45;93877.41;;;7.20;64.61
79577;BME280;69045;48.136;11.386;2023-12-22T03:07:14;93883.66;;;7.19;65.13
79577;BME280;69045;48.136;11.386;2023-12-22T03:09:43;93868.56;;;7.21;65.10
79577;BME280;69045;48.136;11.386;2023-12-22T03:12:11;93864.28;;;7.15;65.64
79577;BME280;69045;48.136;11.386;2023-12-22T03:14:40;93868.94;;;7.13;66.27
79577;BME280;69045;48.136;11.386;2023-12-22T03:17:08;93855.22;;;7.17;66.52
79577;BME280;69045;48.136;11.386;2023-12-22T03:19:37;93863.81;;;7.18;65.86
79577;BME280;69045;48.136;11.386;2023-12-22T03:22:06;93869.38;;;7.09;66.78
79577;BME280;69045;48.136;11.386;2023-12-22T03:24:34;93868.94;;;7.13;67.02
79577;BME280;69045;48.136;11.386;2023-12-22T03:27:04;93864.63;;;7.18;66.86
79577;BME280;69045;48.136;11.386;2023-12-22T03:29:32;93875.84;;;7.19;67.33
79577;BME280;69045;48.136;11.386;2023-12-22T03:32:01;93861.97;;;7.30;66.44
79577;BME280;69045;48.136;11.386;2023-12-22T03:34:29;93869.41;;;7.38;66.79
79577;BME280;69045;48.136;11.386;2023-12-22T03:36:57;93870.41;;;7.49;66.91
79577;BME280;69045;48.136;11.386;2023-12-22T03:39:25;93858.91;;;7.61;67.43
79577;BME280;69045;48.136;11.386;2023-12-22T03:41:53;93857.59;;;7.76;66.98
79577;BME280;69045;48.136;11.386;2023-12-22T03:44:21;93858.84;;;7.90;67.49
79577;BME280;69045;48.136;11.386;2023-12-22T03:46:52;93850.03;;;8.08;66.67
79577;BME280;69045;48.136;11.386;2023-12-22T03:49:22;93852.53;;;8.19;66.41
79577;BME280;69045;48.136;11.386;2023-12-22T03:51:50;93856.09;;;8.30;66.18
79577;BME280;69045;48.136;11.386;2023-12-22T03:54:18;93842.22;;;8.41;66.16
79577;BME280;69045;48.136;11.386;2023-12-22T03:56:46;93838.16;;;8.51;65.85
79577;BME280;69045;48.136;11.386;2023-12-22T03:59:13;93849.28;;;8.63;65.44
79577;BME280;69045;48.136;11.386;2023-12-22T04:01:50;93858.34;;;8.77;64.89
79577;BME280;69045;48.136;11.386;2023-12-22T04:04:19;93856.97;;;8.91;64.42
79577;BME280;69045;48.136;11.386;2023-12-22T04:06:50;93868.81;;;8.99;63.83
79577;BME280;69045;48.136;11.386;2023-12-22T04:09:18;93867.84;;;9.05;63.58
79577;BME280;69045;48.136;11.386;2023-12-22T04:11:46;93864.50;;;9.10;62.62
79577;BME280;69045;48.136;11.386;2023-12-22T04:14:14;93859.34;;;9.15;62.84
79577;BME280;69045;48.136;11.386;2023-12-22T04:16:43;93856.50;;;9.16;62.81
79577;BME280;69045;48.136;11.386;2023-12-22T04:19:11;93873.75;;;9.17;62.65
79577;BME280;69045;48.136;11.386;2023-12-22T04:21:39;93881.09;;;9.20;62.75
79577;BME280;69045;48.136;11.386;2023-12-22T04:24:09;93880.06;;;9.21;62.31
79577;BME280;69045;48.136;11.386;2023-12-22T04:26:37;93876.78;;;9.31;61.86
79577;BME280;69045;48.136;11.386;2023-12-22T04:29:05;93867.72;;;9.39;61.29
79577;BME280;69045;48.136;11.386;2023-12-22T04:31:33;93868.81;;;9.43;61.39
79577;BME280;69045;48.136;11.386;2023-12-22T04:34:01;93868.31;;;9.46;61.79
79577;BME280;69045;48.136;11.386;2023-12-22T04:36:29;93866.50;;;9.46;61.10
79577;BME280;69045;48.136;11.386;2023-12-22T04:38:57;93869.94;;;9.52;61.51
79577;BME280;69045;48.136;11.386;2023-12-22T04:41:27;93877.84;;;9.57;61.49
79577;BME280;69045;48.136;11.386;2023-12-22T04:43:55;93873.94;;;9.60;61.04
79577;BME280;69045;48.136;11.386;2023-12-22T04:46:23;93861.91;;;9.58;61.28
79577;BME280;69045;48.136;11.386;2023-12-22T04:48:51;93868.72;;;9.60;61.17
79577;BME280;69045;48.136;11.386;2023-12-22T04:51:19;93872.19;;;9.65;61.44
79577;BME280;69045;48.136;11.386;2023-12-22T04:53:47;93880.88;;;9.71;60.46
79577;BME280;69045;48.136;11.386;2023-12-22T04:56:16;93871.25;;;9.76;61.29
79577;BME280;69045;48.136;11.386;2023-12-22T04:58:45;93863.44;;;9.81;60.48
79577;BME280;69045;48.136;11.386;2023-12-22T05:01:13;93869.81;;;9.91;60.73
79577;BME280;69045;48.136;11.386;2023-12-22T05:03:41;93858.59;;;9.95;59.40
79577;BME280;69045;48.136;11.386;2023-12-22T05:06:09;93866.69;;;9.94;59.92
79577;BME280;69045;48.136;11.386;2023-12-22T05:08:37;93878.00;;;9.99;59.84
79577;BME280;69045;48.136;11.386;2023-12-22T05:11:05;93872.19;;;9.92;59.96
79577;BME280;69045;48.136;11.386;2023-12-22T05:13:33;93871.13;;;9.93;59.75
79577;BME280;69045;48.136;11.386;2023-12-22T05:16:03;93874.59;;;9.99;59.81
79577;BME280;69045;48.136;11.386;2023-12-22T05:18:32;93889.56;;;10.03;59.61
79577;BME280;69045;48.136;11.386;2023-12-22T05:21:00;93890.34;;;10.09;59.45
79577;BME280;69045;48.136;11.386;2023-12-22T05:23:28;93897.72;;;10.12;59.78
79577;BME280;69045;48.136;11.386;2023-12-22T05:25:56;93889.38;;;10.15;59.40
79577;BME280;69045;48.136;11.386;2023-12-22T05:28:24;93895.28;;;10.64;62.05
79577;BME280;69045;48.136;11.386;2023-12-22T05:30:52;93893.25;;;11.24;56.63
79577;BME280;69045;48.136;11.386;2023-12-22T05:33:21;93908.75;;;11.31;55.96
79577;BME280;69045;48.136;11.386;2023-12-22T05:35:49;93904.81;;;11.28;55.51
79577;BME280;69045;48.136;11.386;2023-12-22T05:38:17;93921.56;;;11.22;56.19
79577;BME280;69045;48.136;11.386;2023-12-22T05:40:45;93913.44;;;11.24;57.01
79577;BME280;69045;48.136;11.386;2023-12-22T05:43:15;93912.91;;;11.21;57.37
79577;BME280;69045;48.136;11.386;2023-12-22T05:45:43;93928.59;;;11.16;57.07
79577;BME280;69045;48.136;11.386;2023-12-22T05:48:11;93932.78;;;11.12;57.52
79577;BME280;69045;48.136;11.386;2023-12-22T05:50:40;93926.47;;;11.08;57.92
79577;BME280;69045;48.136;11.386;2023-12-22T05:53:08;93938.81;;;11.13;57.86
79577;BME280;69045;48.136;11.386;2023-12-22T05:55:38;93949.56;;;11.11;58.42
79577;BME280;69045;48.136;11.386;2023-12-22T05:58:06;93944.00;;;11.08;58.63
79577;BME280;69045;48.136;11.386;2023-12-22T06:00:35;93944.75;;;11.03;58.82
79577;BME280;69045;48.136;11.386;2023-12-22T06:03:03;93949.22;;;11.03;58.74
79577;BME280;69045;48.136;11.386;2023-12-22T06:05:32;93950.78;;;10.99;58.57
79577;BME280;69045;48.136;11.386;2023-12-22T06:08:02;93951.72;;;10.82;58.78
79577;BME280;69045;48.136;11.386;2023-12-22T06:10:30;93960.28;;;10.73;59.61
79577;BME280;69045;48.136;11.386;2023-12-22T06:12:58;93959.41;;;10.57;60.59
79577;BME280;69045;48.136;11.386;2023-12-22T06:15:30;93949.94;;;10.56;60.82
79577;BME280;69045;48.136;11.386;2023-12-22T06:17:58;93946.88;;;10.64;60.30
79577;BME280;69045;48.136;11.386;2023-12-22T06:20:26;93936.41;;;10.64;60.55
79577;BME280;69045;48.136;11.386;2023-12-22T06:22:54;93948.72;;;10.63;60.12
79577;BME280;69045;48.136;11.386;2023-12-22T06:25:23;93962.59;;;10.69;59.96
79577;BME280;69045;48.136;11.386;2023-12-22T06:27:51;93959.00;;;10.75;60.06
79577;BME280;69045;48.136;11.386;2023-12-22T06:30:19;93938.91;;;10.86;58.53
79577;BME280;69045;48.136;11.386;2023-12-22T06:32:47;93941.09;;;10.99;58.39
79577;BME280;69045;48.136;11.386;2023-12-22T06:35:16;93937.69;;;10.99;58.13
79577;BME280;69045;48.136;11.386;2023-12-22T06:37:44;93951.84;;;10.98;58.54
79577;BME280;69045;48.136;11.386;2023-12-22T06:40:11;93955.81;;;11.05;57.76
79577;BME280;69045;48.136;11.386;2023-12-22T06:42:41;93956.34;;;11.07;58.55
79577;BME280;69045;48.136;11.386;2023-12-22T06:45:09;93967.06;;;11.06;57.54
79577;BME280;69045;48.136;11.386;2023-12-22T06:47:37;93962.06;;;10.99;57.29
79577;BME280;69045;48.136;11.386;2023-12-22T06:50:06;93964.72;;;11.04;57.56
79577;BME280;69045;48.136;11.386;2023-12-22T06:52:34;93964.22;;;11.12;57.86
79577;BME280;69045;48.136;11.386;2023-12-22T06:55:03;93958.22;;;11.17;57.09
79577;BME280;69045;48.136;11.386;2023-12-22T06:57:31;93965.06;;;11.23;57.76
79577;BME280;69045;48.136;11.386;2023-12-22T07:00:04;93966.41;;;11.26;57.79
79577;BME280;69045;48.136;11.386;2023-12-22T07:02:32;93977.34;;;11.17;57.82
79577;BME280;69045;48.136;11.386;2023-12-22T07:05:29;93977.13;;;11.24;57.08
79577;BME280;69045;48.136;11.386;2023-12-22T07:07:57;93981.56;;;11.24;55.97
79577;BME280;69045;48.136;11.386;2023-12-22T07:10:25;93989.75;;;11.27;57.34
79577;BME280;69045;48.136;11.386;2023-12-22T07:12:54;93983.44;;;11.28;57.35
79577;BME280;69045;48.136;11.386;2023-12-22T07:15:23;93990.81;;;11.36;56.62
79577;BME280;69045;48.136;11.386;2023-12-22T07:17:51;94015.22;;;11.37;57.24
79577;BME280;69045;48.136;11.386;2023-12-22T07:20:20;94005.19;;;11.29;57.66
79577;BME280;69045;48.136;11.386;2023-12-22T07:22:47;94022.94;;;11.16;58.08
79577;BME280;69045;48.136;11.386;2023-12-22T07:25:17;94043.38;;;11.14;57.83
79577;BME280;69045;48.136;11.386;2023-12-22T07:27:46;94033.44;;;11.16;58.09
79577;BME280;69045;48.136;11.386;2023-12-22T07:30:14;94044.47;;;11.18;58.73
79577;BME280;69045;48.136;11.386;2023-12-22T07:32:49;94046.09;;;11.25;57.27
79577;BME280;69045;48.136;11.386;2023-12-22T07:35:19;94054.19;;;11.23;57.30
79577;BME280;69045;48.136;11.386;2023-12-22T07:37:47;94057.09;;;11.27;58.40
79577;BME280;69045;48.136;11.386;2023-12-22T07:40:16;94050.06;;;11.32;57.68
79577;BME280;69045;48.136;11.386;2023-12-22T07:42:44;94053.47;;;11.33;57.40
79577;BME280;69045;48.136;11.386;2023-12-22T07:45:12;94053.75;;;11.36;57.14
79577;BME280;69045;48.136;11.386;2023-12-22T07:47:40;94051.69;;;11.38;57.02
79577;BME280;69045;48.136;11.386;2023-12-22T07:50:10;94052.22;;;11.40;57.15
79577;BME280;69045;48.136;11.386;2023-12-22T07:52:38;94063.78;;;11.49;57.14
79577;BME280;69045;48.136;11.386;2023-12-22T07:55:09;94053.31;;;11.49;57.25
79577;BME280;69045;48.136;11.386;2023-12-22T07:57:37;94055.97;;;11.55;56.64
79577;BME280;69045;48.136;11.386;2023-12-22T08:00:07;94039.47;;;11.59;56.60
79577;BME280;69045;48.136;11.386;2023-12-22T08:34:58;94179.50;;;9.39;66.13
79577;BME280;69045;48.136;11.386;2023-12-22T08:37:26;94182.44;;;9.76;64.75
79577;BME280;69045;48.136;11.386;2023-12-22T08:39:54;94173.75;;;10.09;63.93
79577;BME280;69045;48.136;11.386;2023-12-22T08:42:22;94173.91;;;10.42;62.22
79577;BME280;69045;48.136;11.386;2023-12-22T08:44:50;94192.44;;;10.57;61.59
79577;BME280;69045;48.136;11.386;2023-12-22T08:47:19;94182.00;;;10.84;62.17
79577;BME280;69045;48.136;11.386;2023-12-22T08:49:47;94186.19;;;11.12;61.06
79577;BME280;69045;48.136;11.386;2023-12-22T08:52:16;94178.72;;;11.58;58.85
79577;BME280;69045;48.136;11.386;2023-12-22T08:54:44;94176.75;;;11.75;58.15
79577;BME280;69045;48.136;11.386;2023-12-22T08:57:12;94176.63;;;11.87;58.38
79577;BME280;69045;48.136;11.386;2023-12-22T08:59:40;94184.91;;;12.16;57.23
79577;BME280;69045;48.136;11.386;2023-12-22T09:02:08;94206.81;;;12.37;55.95
79577;BME280;69045;48.136;11.386;2023-12-22T09:04:36;94201.41;;;12.58;55.72
79577;BME280;69045;48.136;11.386;2023-12-22T09:07:05;94203.13;;;13.00;54.45
79577;BME280;69045;48.136;11.386;2023-12-22T09:09:34;94177.16;;;13.14;53.67
79577;BME280;69045;48.136;11.386;2023-12-22T09:12:03;94183.78;;;13.32;53.39
79577;BME280;69045;48.136;11.386;2023-12-22T09:14:31;94170.91;;;13.30;53.45
79577;BME280;69045;48.136;11.386;2023-12-22T09:16:59;94166.69;;;13.29;52.69
79577;BME280;69045;48.136;11.386;2023-12-22T09:19:27;94170.63;;;13.32;52.47
79577;BME280;69045;48.136;11.386;2023-12-22T09:21:55;94151.97;;;13.23;52.82
79577;BME280;69045;48.136;11.386;2023-12-22T09:24:23;94158.75;;;13.09;52.92
79577;BME280;69045;48.136;11.386;2023-12-22T09:26:53;94168.97;;;12.95;53.25
79577;BME280;69045;48.136;11.386;2023-12-22T09:29:20;94152.91;;;12.81;53.72
79577;BME280;69045;48.136;11.386;2023-12-22T09:31:49;94163.38;;;12.71;53.81
79577;BME280;69045;48.136;11.386;2023-12-22T09:34:17;94172.28;;;12.65;53.99
79577;BME280;69045;48.136;11.386;2023-12-22T09:36:45;94179.91;;;12.62;53.63
79577;BME280;69045;48.136;11.386;2023-12-22T09:39:13;94184.84;;;12.53;53.77
79577;BME280;69045;48.136;11.386;2023-12-22T09:41:47;94185.56;;;12.38;54.27
79577;BME280;69045;48.136;11.386;2023-12-22T09:44:19;94176.06;;;12.32;54.65
79577;BME280;69045;48.136;11.386;2023-12-22T09:46:48;94160.31;;;12.32;54.01
79577;BME280;69045;48.136;11.386;2023-12-22T09:49:17;94176.03;;;12.22;54.73
79577;BME280;69045;48.136;11.386;2023-12-22T09:51:49;94170.47;;;12.13;55.10
79577;BME280;69045;48.136;11.386;2023-12-22T09:54:19;94180.69;;;12.10;53.90
79577;BME280;69045;48.136;11.386;2023-12-22T09:56:48;94195.03;;;11.97;54.80
79577;BME280;69045;48.136;11.386;2023-12-22T09:59:21;94193.16;;;11.87;55.24
79577;BME280;69045;48.136;11.386;2023-12-22T10:01:52;94184.31;;;11.66;55.13
79577;BME280;69045;48.136;11.386;2023-12-22T10:04:22;94188.41;;;11.57;55.76
79577;BME280;69045;48.136;11.386;2023-12-22T10:06:51;94190.84;;;11.32;56.90
79577;BME280;69045;48.136;11.386;2023-12-22T10:09:21;94182.34;;;11.19;57.23
79577;BME280;69045;48.136;11.386;2023-12-22T10:11:52;94184.13;;;11.14;57.97
79577;BME280;69045;48.136;11.386;2023-12-22T10:14:22;94184.06;;;11.09;57.33
79577;BME280;69045;48.136;11.386;2023-12-22T10:16:51;94178.22;;;11.02;57.66
79577;BME280;69045;48.136;11.386;2023-12-22T10:19:19;94166.56;;;10.87;57.97
79577;BME280;69045;48.136;11.386;2023-12-22T10:21:48;94171.13;;;10.75;58.04
79577;BME280;69045;48.136;11.386;2023-12-22T10:24:39;94168.16;;;10.66;58.56
79577;BME280;69045;48.136;11.386;2023-12-22T10:27:11;94151.13;;;10.64;59.50
79577;BME280;69045;48.136;11.386;2023-12-22T10:29:41;94157.88;;;10.60;59.24
79577;BME280;69045;48.136;11.386;2023-12-22T10:32:08;94147.66;;;10.58;58.67
79577;BME280;69045;48.136;11.386;2023-12-22T10:34:37;94142.00;;;10.45;59.74
79577;BME280;69045;48.136;11.386;2023-12-22T10:37:05;94132.75;;;10.37;60.50
79577;BME280;69045;48.136;11.386;2023-12-22T10:39:33;94129.47;;;10.25;61.03
79577;BME280;69045;48.136;11.386;2023-12-22T10:42:03;94128.97;;;10.28;61.87
79577;BME280;69045;48.136;11.386;2023-12-22T10:44:32;94121.78;;;10.40;61.46
79577;BME280;69045;48.136;11.386;2023-12-22T10:47:03;94114.88;;;10.56;61.38
79577;BME280;69045;48.136;11.386;2023-12-22T10:49:31;94113.22;;;10.72;61.51
79577;BME280;69045;48.136;11.386;2023-12-22T10:52:01;94101.38;;;10.91;60.75
79577;BME280;69045;48.136;11.386;2023-12-22T10:54:29;94109.38;;;11.06;61.35
79577;BME280;69045;48.136;11.386;2023-12-22T10:56:58;94119.44;;;11.19;60.76
79577;BME280;69045;48.136;11.386;2023-12-22T10:59:29;94120.81;;;11.27;60.81
79577;BME280;69045;48.136;11.386;2023-12-22T11:01:59;94133.69;;;11.34;60.09
79577;BME280;69045;48.136;11.386;2023-12-22T11:04:30;94124.88;;;11.45;59.69
79577;BME280;69045;48.136;11.386;2023-12-22T11:07:03;94131.97;;;11.49;59.63
79577;BME280;69045;48.136;11.386;2023-12-22T11:09:35;94123.84;;;11.51;60.65
79577;BME280;69045;48.136;11.386;2023-12-22T11:12:05;94115.19;;;11.45;59.88
79577;BME280;69045;48.136;11.386;2023-12-22T11:14:36;94114.66;;;11.48;59.69
79577;BME280;69045;48.136;11.386;2023-12-22T11:17:07;94108.94;;;11.52;60.66
79577;BME280;69045;48.136;11.386;2023-12-22T11:19:40;94117.03;;;11.50;60.41
79577;BME280;69045;48.136;11.386;2023-12-22T11:22:09;94131.19;;;11.49;59.65
79577;BME280;69045;48.136;11.386;2023-12-22T11:24:38;94107.91;;;11.58;59.91
79577;BME280;69045;48.136;11.386;2023-12-22T11:27:09;94127.88;;;11.59;60.16
79577;BME280;69045;48.136;11.386;2023-12-22T11:29:40;94122.31;;;11.55;59.04
79577;BME280;69045;48.136;11.386;2023-12-22T11:32:10;94123.06;;;11.51;59.83
79577;BME280;69045;48.136;11.386;2023-12-22T11:34:42;94114.94;;;11.47;60.06
79577;BME280;69045;48.136;11.386;2023-12-22T11:37:11;94110.47;;;11.47;60.80
79577;BME280;69045;48.136;11.386;2023-12-22T11:39:39;94112.56;;;11.51;60.22
79577;BME280;69045;48.136;11.386;2023-12-22T11:42:11;94108.72;;;11.63;60.84
79577;BME280;69045;48.136;11.386;2023-12-22T11:44:40;94097.97;;;11.60;60.26
79577;BME280;69045;48.136;11.386;2023-12-22T11:47:09;94095.91;;;11.67;60.63
79577;BME280;69045;48.136;11.386;2023-12-22T11:49:41;94101.94;;;11.67;60.08
79577;BME280;69045;48.136;11.386;2023-12-22T11:52:10;94098.03;;;11.70;60.66
79577;BME280;69045;48.136;11.386;2023-12-22T11:54:49;94099.59;;;11.71;60.10
79577;BME280;69045;48.136;11.386;2023-12-22T11:57:35;94106.41;;;11.67;60.88
79577;BME280;69045;48.136;11.386;2023-12-22T12:00:07;94100.88;;;11.63;60.46
79577;BME280;69045;48.136;11.386;2023-12-22T12:02:40;94090.34;;;11.58;60.19
79577;BME280;69045;48.136;11.386;2023-12-22T12:05:13;94108.41;;;11.55;61.41
79577;BME280;69045;48.136;11.386;2023-12-22T12:07:43;94107.38;;;11.56;60.81
79577;BME280;69045;48.136;11.386;2023-12-22T12:13:05;94111.34;;;11.63;60.48
79577;BME280;69045;48.136;11.386;2023-12-22T12:15:34;94079.16;;;11.73;60.14
79577;BME280;69045;48.136;11.386;2023-12-22T12:18:03;94089.94;;;11.76;60.78
79577;BME280;69045;48.136;11.386;2023-12-22T12:20:34;94079.16;;;11.73;60.49
79577;BME280;69045;48.136;11.386;2023-12-22T12:23:03;94062.13;;;11.75;59.90
79577;BME280;69045;48.136;11.386;2023-12-22T12:25:33;94064.53;;;11.82;60.79
79577;BME280;69045;48.136;11.386;2023-12-22T12:28:04;94070.09;;;11.91;60.51
79577;BME280;69045;48.136;11.386;2023-12-22T12:30:35;94050.19;;;12.00;60.04
79577;BME280;69045;48.136;11.386;2023-12-22T12:33:06;94044.94;;;12.00;60.36
79577;BME280;69045;48.136;11.386;2023-12-22T12:35:37;94044.72;;;12.07;60.05
79577;BME280;69045;48.136;11.386;2023-12-22T12:38:11;94037.88;;;12.11;60.11
79577;BME280;69045;48.136;11.386;2023-12-22T12:40:40;94047.59;;;12.10;59.25
79577;BME280;69045;48.136;11.386;2023-12-22T12:43:09;94026.81;;;11.98;59.14
79577;BME280;69045;48.136;11.386;2023-12-22T12:45:37;94025.00;;;11.99;59.75
79577;BME280;69045;48.136;11.386;2023-12-22T12:48:06;94018.69;;;11.95;60.12
79577;BME280;69045;48.136;11.386;2023-12-22T12:50:34;94029.91;;;11.85;60.11
79577;BME280;69045;48.136;11.386;2023-12-22T12:53:05;94014.47;;;11.89;59.93
79577;BME280;69045;48.136;11.386;2023-12-22T12:55:34;94003.69;;;11.90;59.10
79577;BME280;69045;48.136;11.386;2023-12-22T12:58:03;94007.38;;;11.89;59.82
79577;BME280;69045;48.136;11.386;2023-12-22T13:00:32;93997.94;;;11.88;59.23
79577;BME280;69045;48.136;11.386;2023-12-22T13:03:04;93987.91;;;11.80;59.28
79577;BME280;69045;48.136;11.386;2023-12-22T13:05:34;93987.88;;;11.75;59.27
79577;BME280;69045;48.136;11.386;2023-12-22T13:08:08;93975.28;;;11.72;59.49
79577;BME280;69045;48.136;11.386;2023-12-22T13:10:37;93979.44;;;11.68;59.02
79577;BME280;69045;48.136;11.386;2023-12-22T13:13:06;93965.00;;;11.60;59.68
79577;BME280;69045;48.136;11.386;2023-12-22T13:15:34;93964.75;;;11.62;59.77
79577;BME280;69045;48.136;11.386;2023-12-22T13:18:03;93963.91;;;11.56;59.94
79577;BME280;69045;48.136;11.386;2023-12-22T13:20:32;93956.09;;;11.61;59.82
79577;BME280;69045;48.136;11.386;2023-12-22T13:23:01;93944.28;;;11.64;59.66
79577;BME280;69045;48.136;11.386;2023-12-22T13:25:38;93952.69;;;11.66;60.60
79577;BME280;69045;48.136;11.386;2023-12-22T13:28:07;93960.00;;;11.64;59.66
79577;BME280;69045;48.136;11.386;2023-12-22T13:30:35;93957.63;;;11.57;60.01
79577;BME280;69045;48.136;11.386;2023-12-22T13:33:06;93944.50;;;11.57;59.87
79577;BME280;69045;48.136;11.386;2023-12-22T13:35:35;93943.22;;;11.60;60.24
79577;BME280;69045;48.136;11.386;2023-12-22T13:38:10;93940.09;;;11.63;60.32
79577;BME280;69045;48.136;11.386;2023-12-22T13:40:44;93934.31;;;11.61;60.89